sensor_id;sensor_type;location;lat;lon;timestamp;P1;durP1;ratioP1;P2;durP2;ratioP2
51654;SDS011;37732;53.106;7.030;2022-12-18T00:02:16;106.40;;;47.33;;
51654;SDS011;37732;53.106;7.030;2022-12-18T00:04:42;137.77;;;68.80;;
51654;SDS011;37732;53.106;7.030;2022-12-18T00:07:08;139.75;;;75.80;;
51654;SDS011;37732;53.106;7.030;2022-12-18T00:09:33;117.60;;;58.72;;
51654;SDS011;37732;53.106;7.030;2022-12-18T00:11:59;137.57;;;76.43;;
51654;SDS011;37732;53.106;7.030;2022-12-18T00:14:25;103.40;;;44.63;;
51654;SDS011;37732;53.106;7.030;2022-12-18T00:16:50;149.15;;;77.82;;
51654;SDS011;37732;53.106;7.030;2022-12-18T00:19:16;129.50;;;69.05;;
51654;SDS011;37732;53.106;7.030;2022-12-18T00:21:42;99.85;;;43.88;;
51654;SDS011;37732;53.106;7.030;2022-12-18T00:24:09;92.53;;;42.65;;
51654;SDS011;37732;53.106;7.030;2022-12-18T00:26:35;133.70;;;74.50;;
51654;SDS011;37732;53.106;7.030;2022-12-18T00:29:05;101.35;;;44.75;;
51654;SDS011;37732;53.106;7.030;2022-12-18T00:31:40;129.10;;;62.97;;
51654;SDS011;37732;53.106;7.030;2022-12-18T00:34:06;146.10;;;78.05;;
51654;SDS011;37732;53.106;7.030;2022-12-18T00:36:35;91.78;;;44.65;;
51654;SDS011;37732;53.106;7.030;2022-12-18T00:39:02;87.75;;;41.25;;
51654;SDS011;37732;53.106;7.030;2022-12-18T00:41:29;97.15;;;43.00;;
51654;SDS011;37732;53.106;7.030;2022-12-18T00:44:13;148.68;;;75.40;;
51654;SDS011;37732;53.106;7.030;2022-12-18T00:46:40;90.45;;;41.13;;
51654;SDS011;37732;53.106;7.030;2022-12-18T00:49:07;131.20;;;71.82;;
51654;SDS011;37732;53.106;7.030;2022-12-18T00:51:33;119.75;;;69.13;;
51654;SDS011;37732;53.106;7.030;2022-12-18T00:53:59;102.68;;;50.45;;
51654;SDS011;37732;53.106;7.030;2022-12-18T00:56:25;92.15;;;43.30;;
51654;SDS011;37732;53.106;7.030;2022-12-18T00:58:51;95.45;;;43.85;;
51654;SDS011;37732;53.106;7.030;2022-12-18T01:01:17;92.75;;;39.72;;
51654;SDS011;37732;53.106;7.030;2022-12-18T01:03:42;132.15;;;71.28;;
51654;SDS011;37732;53.106;7.030;2022-12-18T01:06:11;122.63;;;66.28;;
51654;SDS011;37732;53.106;7.030;2022-12-18T01:08:38;105.88;;;52.05;;
51654;SDS011;37732;53.106;7.030;2022-12-18T01:11:14;144.82;;;74.38;;
51654;SDS011;37732;53.106;7.030;2022-12-18T01:13:42;128.65;;;60.63;;
51654;SDS011;37732;53.106;7.030;2022-12-18T01:16:08;95.32;;;43.53;;
51654;SDS011;37732;53.106;7.030;2022-12-18T01:18:35;135.07;;;71.90;;
51654;SDS011;37732;53.106;7.030;2022-12-18T01:21:05;130.02;;;72.00;;
51654;SDS011;37732;53.106;7.030;2022-12-18T01:23:32;94.57;;;41.58;;
51654;SDS011;37732;53.106;7.030;2022-12-18T01:25:58;138.93;;;74.93;;
51654;SDS011;37732;53.106;7.030;2022-12-18T01:28:28;131.82;;;72.53;;
51654;SDS011;37732;53.106;7.030;2022-12-18T01:30:54;93.05;;;41.47;;
51654;SDS011;37732;53.106;7.030;2022-12-18T01:33:19;133.20;;;70.93;;
51654;SDS011;37732;53.106;7.030;2022-12-18T01:35:45;111.65;;;55.92;;
51654;SDS011;37732;53.106;7.030;2022-12-18T01:38:11;98.97;;;40.28;;
51654;SDS011;37732;53.106;7.030;2022-12-18T01:40:37;114.10;;;60.05;;
51654;SDS011;37732;53.106;7.030;2022-12-18T01:43:03;123.05;;;68.47;;
51654;SDS011;37732;53.106;7.030;2022-12-18T01:45:29;124.43;;;68.03;;
51654;SDS011;37732;53.106;7.030;2022-12-18T01:47:57;115.93;;;68.63;;
51654;SDS011;37732;53.106;7.030;2022-12-18T01:50:30;121.07;;;72.57;;
51654;SDS011;37732;53.106;7.030;2022-12-18T01:53:15;115.90;;;67.72;;
51654;SDS011;37732;53.106;7.030;2022-12-18T01:55:45;79.63;;;36.63;;
51654;SDS011;37732;53.106;7.030;2022-12-18T01:58:13;113.22;;;64.10;;
51654;SDS011;37732;53.106;7.030;2022-12-18T02:03:15;75.93;;;36.58;;
51654;SDS011;37732;53.106;7.030;2022-12-18T02:06:01;112.88;;;64.65;;
51654;SDS011;37732;53.106;7.030;2022-12-18T02:08:31;84.00;;;40.55;;
51654;SDS011;37732;53.106;7.030;2022-12-18T02:11:07;110.85;;;63.15;;
51654;SDS011;37732;53.106;7.030;2022-12-18T02:13:42;101.97;;;62.30;;
51654;SDS011;37732;53.106;7.030;2022-12-18T02:19:35;79.00;;;39.53;;
51654;SDS011;37732;53.106;7.030;2022-12-18T02:22:15;83.18;;;37.70;;
51654;SDS011;37732;53.106;7.030;2022-12-18T02:24:51;69.05;;;35.45;;
51654;SDS011;37732;53.106;7.030;2022-12-18T02:27:25;103.70;;;63.35;;
51654;SDS011;37732;53.106;7.030;2022-12-18T02:29:54;78.53;;;39.03;;
51654;SDS011;37732;53.106;7.030;2022-12-18T02:32:24;96.75;;;56.22;;
51654;SDS011;37732;53.106;7.030;2022-12-18T02:34:52;111.55;;;62.53;;
51654;SDS011;37732;53.106;7.030;2022-12-18T02:37:21;113.35;;;64.55;;
51654;SDS011;37732;53.106;7.030;2022-12-18T02:39:48;71.85;;;36.25;;
51654;SDS011;37732;53.106;7.030;2022-12-18T02:42:16;89.72;;;36.63;;
51654;SDS011;37732;53.106;7.030;2022-12-18T02:44:47;119.97;;;62.97;;
51654;SDS011;37732;53.106;7.030;2022-12-18T02:47:15;82.20;;;40.92;;
51654;SDS011;37732;53.106;7.030;2022-12-18T02:50:00;122.63;;;68.40;;
51654;SDS011;37732;53.106;7.030;2022-12-18T02:57:40;100.22;;;60.40;;
51654;SDS011;37732;53.106;7.030;2022-12-18T03:00:21;111.72;;;63.00;;
51654;SDS011;37732;53.106;7.030;2022-12-18T03:05:56;85.50;;;37.78;;
51654;SDS011;37732;53.106;7.030;2022-12-18T03:08:52;99.80;;;46.75;;
51654;SDS011;37732;53.106;7.030;2022-12-18T03:11:23;81.93;;;37.35;;
51654;SDS011;37732;53.106;7.030;2022-12-18T03:14:10;74.13;;;35.35;;
51654;SDS011;37732;53.106;7.030;2022-12-18T03:16:40;99.15;;;56.08;;
51654;SDS011;37732;53.106;7.030;2022-12-18T03:19:08;95.80;;;55.03;;
51654;SDS011;37732;53.106;7.030;2022-12-18T03:21:41;73.05;;;35.72;;
51654;SDS011;37732;53.106;7.030;2022-12-18T03:24:10;86.95;;;54.08;;
51654;SDS011;37732;53.106;7.030;2022-12-18T03:26:37;92.38;;;53.42;;
51654;SDS011;37732;53.106;7.030;2022-12-18T03:29:08;85.03;;;51.13;;
51654;SDS011;37732;53.106;7.030;2022-12-18T03:31:41;60.75;;;31.73;;
51654;SDS011;37732;53.106;7.030;2022-12-18T03:34:14;58.90;;;31.88;;
51654;SDS011;37732;53.106;7.030;2022-12-18T03:36:43;71.10;;;45.97;;
51654;SDS011;37732;53.106;7.030;2022-12-18T03:39:08;67.00;;;44.15;;
51654;SDS011;37732;53.106;7.030;2022-12-18T03:41:38;57.33;;;28.92;;
51654;SDS011;37732;53.106;7.030;2022-12-18T03:44:20;49.70;;;25.90;;
51654;SDS011;37732;53.106;7.030;2022-12-18T03:49:49;53.97;;;28.63;;
51654;SDS011;37732;53.106;7.030;2022-12-18T03:52:23;58.35;;;40.53;;
51654;SDS011;37732;53.106;7.030;2022-12-18T03:54:54;44.25;;;24.20;;
51654;SDS011;37732;53.106;7.030;2022-12-18T03:57:23;60.42;;;42.22;;
51654;SDS011;37732;53.106;7.030;2022-12-18T03:59:56;56.95;;;38.63;;
51654;SDS011;37732;53.106;7.030;2022-12-18T04:02:33;60.95;;;42.50;;
51654;SDS011;37732;53.106;7.030;2022-12-18T04:05:00;45.60;;;24.30;;
51654;SDS011;37732;53.106;7.030;2022-12-18T04:07:29;56.15;;;37.35;;
51654;SDS011;37732;53.106;7.030;2022-12-18T04:09:56;46.03;;;24.40;;
51654;SDS011;37732;53.106;7.030;2022-12-18T04:12:25;45.47;;;26.42;;
51654;SDS011;37732;53.106;7.030;2022-12-18T04:14:51;61.17;;;40.13;;
51654;SDS011;37732;53.106;7.030;2022-12-18T04:17:17;55.72;;;38.35;;
51654;SDS011;37732;53.106;7.030;2022-12-18T04:19:42;41.58;;;24.50;;
51654;SDS011;37732;53.106;7.030;2022-12-18T04:22:09;42.38;;;21.85;;
51654;SDS011;37732;53.106;7.030;2022-12-18T04:24:35;50.03;;;25.00;;
51654;SDS011;37732;53.106;7.030;2022-12-18T04:27:01;37.95;;;22.25;;
51654;SDS011;37732;53.106;7.030;2022-12-18T04:29:27;50.42;;;31.73;;
51654;SDS011;37732;53.106;7.030;2022-12-18T04:31:53;48.72;;;27.30;;
51654;SDS011;37732;53.106;7.030;2022-12-18T04:34:19;45.38;;;23.88;;
51654;SDS011;37732;53.106;7.030;2022-12-18T04:36:45;45.00;;;24.52;;
51654;SDS011;37732;53.106;7.030;2022-12-18T04:39:11;53.17;;;37.67;;
51654;SDS011;37732;53.106;7.030;2022-12-18T04:41:37;60.28;;;39.42;;
51654;SDS011;37732;53.106;7.030;2022-12-18T04:44:02;49.38;;;25.35;;
51654;SDS011;37732;53.106;7.030;2022-12-18T04:46:28;48.22;;;24.17;;
51654;SDS011;37732;53.106;7.030;2022-12-18T04:48:54;50.63;;;36.55;;
51654;SDS011;37732;53.106;7.030;2022-12-18T04:51:20;40.97;;;21.52;;
51654;SDS011;37732;53.106;7.030;2022-12-18T04:53:45;46.13;;;25.85;;
51654;SDS011;37732;53.106;7.030;2022-12-18T04:56:12;55.33;;;24.30;;
51654;SDS011;37732;53.106;7.030;2022-12-18T04:58:40;42.95;;;21.65;;
51654;SDS011;37732;53.106;7.030;2022-12-18T05:01:07;38.60;;;22.00;;
51654;SDS011;37732;53.106;7.030;2022-12-18T05:03:33;38.45;;;23.90;;
51654;SDS011;37732;53.106;7.030;2022-12-18T05:05:59;40.72;;;19.80;;
51654;SDS011;37732;53.106;7.030;2022-12-18T05:08:25;39.63;;;21.55;;
51654;SDS011;37732;53.106;7.030;2022-12-18T05:11:02;36.38;;;21.60;;
51654;SDS011;37732;53.106;7.030;2022-12-18T05:13:29;33.20;;;19.38;;
51654;SDS011;37732;53.106;7.030;2022-12-18T05:15:56;47.17;;;33.40;;
51654;SDS011;37732;53.106;7.030;2022-12-18T05:18:22;38.92;;;20.95;;
51654;SDS011;37732;53.106;7.030;2022-12-18T05:20:49;39.92;;;21.83;;
51654;SDS011;37732;53.106;7.030;2022-12-18T05:23:16;40.60;;;21.35;;
51654;SDS011;37732;53.106;7.030;2022-12-18T05:25:41;39.83;;;21.88;;
51654;SDS011;37732;53.106;7.030;2022-12-18T05:28:07;37.50;;;21.55;;
51654;SDS011;37732;53.106;7.030;2022-12-18T05:30:33;46.17;;;32.72;;
51654;SDS011;37732;53.106;7.030;2022-12-18T05:32:59;39.75;;;21.05;;
51654;SDS011;37732;53.106;7.030;2022-12-18T05:35:24;39.63;;;21.17;;
51654;SDS011;37732;53.106;7.030;2022-12-18T05:37:50;39.50;;;22.88;;
51654;SDS011;37732;53.106;7.030;2022-12-18T05:40:15;42.30;;;30.67;;
51654;SDS011;37732;53.106;7.030;2022-12-18T05:42:41;34.08;;;20.00;;
51654;SDS011;37732;53.106;7.030;2022-12-18T05:45:07;44.90;;;19.92;;
51654;SDS011;37732;53.106;7.030;2022-12-18T05:47:33;36.28;;;19.02;;
51654;SDS011;37732;53.106;7.030;2022-12-18T05:49:58;40.90;;;20.75;;
51654;SDS011;37732;53.106;7.030;2022-12-18T05:52:24;33.90;;;17.67;;
51654;SDS011;37732;53.106;7.030;2022-12-18T05:54:49;32.00;;;19.92;;
51654;SDS011;37732;53.106;7.030;2022-12-18T05:57:15;37.25;;;21.02;;
51654;SDS011;37732;53.106;7.030;2022-12-18T05:59:41;41.22;;;20.52;;
51654;SDS011;37732;53.106;7.030;2022-12-18T06:02:06;41.08;;;19.25;;
51654;SDS011;37732;53.106;7.030;2022-12-18T06:04:32;33.00;;;19.00;;
51654;SDS011;37732;53.106;7.030;2022-12-18T06:06:58;34.92;;;20.42;;
51654;SDS011;37732;53.106;7.030;2022-12-18T06:09:24;44.10;;;32.17;;
51654;SDS011;37732;53.106;7.030;2022-12-18T06:11:50;36.85;;;18.55;;
51654;SDS011;37732;53.106;7.030;2022-12-18T06:14:17;35.22;;;21.23;;
51654;SDS011;37732;53.106;7.030;2022-12-18T06:16:42;36.90;;;19.95;;
51654;SDS011;37732;53.106;7.030;2022-12-18T06:19:12;30.75;;;18.58;;
51654;SDS011;37732;53.106;7.030;2022-12-18T06:21:41;28.23;;;15.95;;
51654;SDS011;37732;53.106;7.030;2022-12-18T06:24:07;36.15;;;19.98;;
51654;SDS011;37732;53.106;7.030;2022-12-18T06:26:33;33.90;;;18.95;;
51654;SDS011;37732;53.106;7.030;2022-12-18T06:28:59;38.72;;;26.08;;
51654;SDS011;37732;53.106;7.030;2022-12-18T06:31:25;30.95;;;17.48;;
51654;SDS011;37732;53.106;7.030;2022-12-18T06:33:51;31.40;;;18.80;;
51654;SDS011;37732;53.106;7.030;2022-12-18T06:36:16;31.67;;;18.30;;
51654;SDS011;37732;53.106;7.030;2022-12-18T06:38:42;38.88;;;27.73;;
51654;SDS011;37732;53.106;7.030;2022-12-18T06:43:35;33.63;;;20.17;;
51654;SDS011;37732;53.106;7.030;2022-12-18T06:46:01;35.40;;;18.45;;
51654;SDS011;37732;53.106;7.030;2022-12-18T06:48:28;31.63;;;18.02;;
51654;SDS011;37732;53.106;7.030;2022-12-18T06:50:54;34.63;;;18.65;;
51654;SDS011;37732;53.106;7.030;2022-12-18T06:53:20;29.95;;;17.90;;
51654;SDS011;37732;53.106;7.030;2022-12-18T06:55:46;32.50;;;18.60;;
51654;SDS011;37732;53.106;7.030;2022-12-18T06:58:12;38.53;;;24.30;;
51654;SDS011;37732;53.106;7.030;2022-12-18T07:00:38;30.77;;;18.63;;
51654;SDS011;37732;53.106;7.030;2022-12-18T07:03:04;32.30;;;16.92;;
51654;SDS011;37732;53.106;7.030;2022-12-18T07:05:29;34.45;;;18.33;;
51654;SDS011;37732;53.106;7.030;2022-12-18T07:07:55;27.65;;;17.52;;
51654;SDS011;37732;53.106;7.030;2022-12-18T07:10:21;36.90;;;24.00;;
51654;SDS011;37732;53.106;7.030;2022-12-18T07:12:46;30.30;;;18.98;;
51654;SDS011;37732;53.106;7.030;2022-12-18T07:15:12;33.63;;;16.35;;
51654;SDS011;37732;53.106;7.030;2022-12-18T07:17:37;32.70;;;16.67;;
51654;SDS011;37732;53.106;7.030;2022-12-18T07:20:03;34.75;;;25.88;;
51654;SDS011;37732;53.106;7.030;2022-12-18T07:22:29;32.75;;;18.15;;
51654;SDS011;37732;53.106;7.030;2022-12-18T07:24:55;32.42;;;17.63;;
51654;SDS011;37732;53.106;7.030;2022-12-18T07:27:21;33.83;;;19.00;;
51654;SDS011;37732;53.106;7.030;2022-12-18T07:29:47;29.35;;;16.55;;
51654;SDS011;37732;53.106;7.030;2022-12-18T07:32:13;29.05;;;17.40;;
51654;SDS011;37732;53.106;7.030;2022-12-18T07:34:39;30.88;;;18.40;;
51654;SDS011;37732;53.106;7.030;2022-12-18T07:37:05;31.48;;;16.85;;
51654;SDS011;37732;53.106;7.030;2022-12-18T07:39:30;33.28;;;18.98;;
51654;SDS011;37732;53.106;7.030;2022-12-18T07:41:56;29.75;;;17.83;;
51654;SDS011;37732;53.106;7.030;2022-12-18T07:44:40;28.90;;;16.33;;
51654;SDS011;37732;53.106;7.030;2022-12-18T07:47:06;29.67;;;16.20;;
51654;SDS011;37732;53.106;7.030;2022-12-18T07:49:32;31.77;;;16.27;;
51654;SDS011;37732;53.106;7.030;2022-12-18T07:51:57;29.77;;;19.50;;
51654;SDS011;37732;53.106;7.030;2022-12-18T07:54:23;23.33;;;15.88;;
51654;SDS011;37732;53.106;7.030;2022-12-18T07:56:49;30.58;;;17.45;;
51654;SDS011;37732;53.106;7.030;2022-12-18T07:59:16;29.95;;;17.60;;
51654;SDS011;37732;53.106;7.030;2022-12-18T08:01:42;27.38;;;16.50;;
51654;SDS011;37732;53.106;7.030;2022-12-18T08:04:09;25.20;;;16.52;;
51654;SDS011;37732;53.106;7.030;2022-12-18T08:06:34;23.35;;;14.73;;
51654;SDS011;37732;53.106;7.030;2022-12-18T08:09:00;26.08;;;16.17;;
51654;SDS011;37732;53.106;7.030;2022-12-18T08:11:26;29.92;;;16.92;;
51654;SDS011;37732;53.106;7.030;2022-12-18T08:13:52;27.52;;;15.63;;
51654;SDS011;37732;53.106;7.030;2022-12-18T08:16:19;26.88;;;15.05;;
51654;SDS011;37732;53.106;7.030;2022-12-18T08:18:45;35.47;;;17.75;;
51654;SDS011;37732;53.106;7.030;2022-12-18T08:21:18;32.17;;;17.67;;
51654;SDS011;37732;53.106;7.030;2022-12-18T08:23:48;29.70;;;18.10;;
51654;SDS011;37732;53.106;7.030;2022-12-18T08:26:14;35.05;;;23.55;;
51654;SDS011;37732;53.106;7.030;2022-12-18T08:28:40;33.88;;;21.67;;
51654;SDS011;37732;53.106;7.030;2022-12-18T08:31:07;29.95;;;18.48;;
51654;SDS011;37732;53.106;7.030;2022-12-18T08:33:33;30.58;;;18.83;;
51654;SDS011;37732;53.106;7.030;2022-12-18T08:36:00;23.77;;;17.05;;
51654;SDS011;37732;53.106;7.030;2022-12-18T08:38:27;28.17;;;19.75;;
51654;SDS011;37732;53.106;7.030;2022-12-18T08:40:59;24.88;;;14.27;;
51654;SDS011;37732;53.106;7.030;2022-12-18T08:43:29;25.60;;;15.02;;
51654;SDS011;37732;53.106;7.030;2022-12-18T08:46:13;27.80;;;15.40;;
51654;SDS011;37732;53.106;7.030;2022-12-18T08:48:39;25.80;;;15.13;;
51654;SDS011;37732;53.106;7.030;2022-12-18T08:51:04;24.48;;;14.32;;
51654;SDS011;37732;53.106;7.030;2022-12-18T08:53:30;27.45;;;14.80;;
51654;SDS011;37732;53.106;7.030;2022-12-18T08:55:56;19.75;;;12.32;;
51654;SDS011;37732;53.106;7.030;2022-12-18T08:58:22;21.73;;;13.32;;
51654;SDS011;37732;53.106;7.030;2022-12-18T09:00:47;22.40;;;13.57;;
51654;SDS011;37732;53.106;7.030;2022-12-18T09:03:14;21.77;;;13.63;;
51654;SDS011;37732;53.106;7.030;2022-12-18T09:05:41;21.80;;;14.02;;
51654;SDS011;37732;53.106;7.030;2022-12-18T09:08:07;20.58;;;13.38;;
51654;SDS011;37732;53.106;7.030;2022-12-18T09:10:32;19.77;;;12.82;;
51654;SDS011;37732;53.106;7.030;2022-12-18T09:12:58;21.65;;;13.35;;
51654;SDS011;37732;53.106;7.030;2022-12-18T09:15:24;18.85;;;12.73;;
51654;SDS011;37732;53.106;7.030;2022-12-18T09:17:50;21.70;;;13.15;;
51654;SDS011;37732;53.106;7.030;2022-12-18T09:20:17;21.00;;;12.52;;
51654;SDS011;37732;53.106;7.030;2022-12-18T09:22:44;23.45;;;12.73;;
51654;SDS011;37732;53.106;7.030;2022-12-18T09:25:09;20.80;;;12.07;;
51654;SDS011;37732;53.106;7.030;2022-12-18T09:27:35;18.92;;;12.35;;
51654;SDS011;37732;53.106;7.030;2022-12-18T09:30:01;19.27;;;10.77;;
51654;SDS011;37732;53.106;7.030;2022-12-18T09:32:27;16.60;;;11.70;;
51654;SDS011;37732;53.106;7.030;2022-12-18T09:34:52;20.60;;;15.02;;
51654;SDS011;37732;53.106;7.030;2022-12-18T09:37:18;17.20;;;10.98;;
51654;SDS011;37732;53.106;7.030;2022-12-18T09:39:44;21.58;;;15.23;;
51654;SDS011;37732;53.106;7.030;2022-12-18T09:42:29;14.73;;;10.05;;
51654;SDS011;37732;53.106;7.030;2022-12-18T09:44:55;17.42;;;9.82;;
51654;SDS011;37732;53.106;7.030;2022-12-18T09:47:25;18.35;;;14.15;;
51654;SDS011;37732;53.106;7.030;2022-12-18T09:49:59;13.80;;;9.18;;
51654;SDS011;37732;53.106;7.030;2022-12-18T09:52:30;13.45;;;8.68;;
51654;SDS011;37732;53.106;7.030;2022-12-18T09:55:03;16.20;;;12.63;;
51654;SDS011;37732;53.106;7.030;2022-12-18T09:57:37;16.13;;;9.20;;
51654;SDS011;37732;53.106;7.030;2022-12-18T10:00:17;14.20;;;8.82;;
51654;SDS011;37732;53.106;7.030;2022-12-18T10:02:46;15.88;;;12.50;;
51654;SDS011;37732;53.106;7.030;2022-12-18T10:05:13;15.18;;;9.07;;
51654;SDS011;37732;53.106;7.030;2022-12-18T10:10:29;12.77;;;7.32;;
51654;SDS011;37732;53.106;7.030;2022-12-18T10:13:15;14.07;;;10.85;;
51654;SDS011;37732;53.106;7.030;2022-12-18T10:15:49;13.98;;;7.90;;
51654;SDS011;37732;53.106;7.030;2022-12-18T10:21:42;11.30;;;6.75;;
51654;SDS011;37732;53.106;7.030;2022-12-18T10:24:38;14.70;;;10.40;;
51654;SDS011;37732;53.106;7.030;2022-12-18T10:27:12;11.98;;;7.35;;
51654;SDS011;37732;53.106;7.030;2022-12-18T10:29:42;12.38;;;7.10;;
51654;SDS011;37732;53.106;7.030;2022-12-18T10:32:14;12.00;;;7.30;;
51654;SDS011;37732;53.106;7.030;2022-12-18T10:35:00;11.02;;;6.60;;
51654;SDS011;37732;53.106;7.030;2022-12-18T10:37:27;13.15;;;10.02;;
51654;SDS011;37732;53.106;7.030;2022-12-18T10:40:27;10.48;;;6.75;;
51654;SDS011;37732;53.106;7.030;2022-12-18T10:43:03;14.20;;;9.18;;
51654;SDS011;37732;53.106;7.030;2022-12-18T10:45:39;10.38;;;6.57;;
51654;SDS011;37732;53.106;7.030;2022-12-18T10:48:17;15.27;;;9.85;;
51654;SDS011;37732;53.106;7.030;2022-12-18T10:50:47;11.98;;;8.32;;
51654;SDS011;37732;53.106;7.030;2022-12-18T10:53:22;12.30;;;8.45;;
51654;SDS011;37732;53.106;7.030;2022-12-18T10:55:51;13.15;;;9.85;;
51654;SDS011;37732;53.106;7.030;2022-12-18T10:58:27;21.48;;;9.50;;
51654;SDS011;37732;53.106;7.030;2022-12-18T11:03:30;11.15;;;6.53;;
51654;SDS011;37732;53.106;7.030;2022-12-18T11:06:16;12.20;;;10.07;;
51654;SDS011;37732;53.106;7.030;2022-12-18T11:08:57;13.73;;;9.73;;
51654;SDS011;37732;53.106;7.030;2022-12-18T11:11:31;11.00;;;7.75;;
51654;SDS011;37732;53.106;7.030;2022-12-18T11:14:12;12.95;;;9.07;;
51654;SDS011;37732;53.106;7.030;2022-12-18T11:16:46;11.52;;;8.50;;
51654;SDS011;37732;53.106;7.030;2022-12-18T11:19:33;16.20;;;8.77;;
51654;SDS011;37732;53.106;7.030;2022-12-18T11:22:01;12.98;;;8.85;;
51654;SDS011;37732;53.106;7.030;2022-12-18T11:24:42;16.38;;;8.18;;
51654;SDS011;37732;53.106;7.030;2022-12-18T11:27:16;12.32;;;8.50;;
51654;SDS011;37732;53.106;7.030;2022-12-18T11:29:43;10.63;;;8.23;;
51654;SDS011;37732;53.106;7.030;2022-12-18T11:35:03;11.63;;;8.48;;
51654;SDS011;37732;53.106;7.030;2022-12-18T11:37:53;10.82;;;8.35;;
51654;SDS011;37732;53.106;7.030;2022-12-18T11:40:31;12.32;;;9.13;;
51654;SDS011;37732;53.106;7.030;2022-12-18T11:43:02;11.82;;;6.40;;
51654;SDS011;37732;53.106;7.030;2022-12-18T11:45:33;12.73;;;8.02;;
51654;SDS011;37732;53.106;7.030;2022-12-18T11:53:11;12.50;;;9.23;;
51654;SDS011;37732;53.106;7.030;2022-12-18T11:58:39;12.25;;;7.75;;
51654;SDS011;37732;53.106;7.030;2022-12-18T12:01:28;12.68;;;8.35;;
51654;SDS011;37732;53.106;7.030;2022-12-18T12:09:47;12.65;;;9.25;;
51654;SDS011;37732;53.106;7.030;2022-12-18T12:15:20;12.52;;;9.73;;
51654;SDS011;37732;53.106;7.030;2022-12-18T12:17:59;11.02;;;7.93;;
51654;SDS011;37732;53.106;7.030;2022-12-18T12:28:59;13.20;;;8.43;;
51654;SDS011;37732;53.106;7.030;2022-12-18T12:31:48;10.98;;;8.95;;
51654;SDS011;37732;53.106;7.030;2022-12-18T12:34:45;10.15;;;8.18;;
51654;SDS011;37732;53.106;7.030;2022-12-18T12:37:47;10.43;;;6.10;;
51654;SDS011;37732;53.106;7.030;2022-12-18T12:40:31;11.25;;;7.65;;
51654;SDS011;37732;53.106;7.030;2022-12-18T12:43:10;10.45;;;6.70;;
51654;SDS011;37732;53.106;7.030;2022-12-18T12:45:48;13.15;;;7.03;;
51654;SDS011;37732;53.106;7.030;2022-12-18T12:51:53;10.93;;;6.75;;
51654;SDS011;37732;53.106;7.030;2022-12-18T12:53:59;12.13;;;7.88;;
51654;SDS011;37732;53.106;7.030;2022-12-18T12:56:45;9.35;;;6.97;;
51654;SDS011;37732;53.106;7.030;2022-12-18T12:59:17;10.85;;;8.00;;
51654;SDS011;37732;53.106;7.030;2022-12-18T13:01:59;12.40;;;8.27;;
51654;SDS011;37732;53.106;7.030;2022-12-18T13:07:41;10.05;;;7.82;;
51654;SDS011;37732;53.106;7.030;2022-12-18T13:12:58;11.68;;;8.43;;
51654;SDS011;37732;53.106;7.030;2022-12-18T13:18:22;10.63;;;8.32;;
51654;SDS011;37732;53.106;7.030;2022-12-18T13:31:11;14.30;;;9.90;;
51654;SDS011;37732;53.106;7.030;2022-12-18T13:33:42;13.00;;;8.38;;
51654;SDS011;37732;53.106;7.030;2022-12-18T13:38:37;12.80;;;9.82;;
51654;SDS011;37732;53.106;7.030;2022-12-18T13:41:20;10.75;;;7.63;;
51654;SDS011;37732;53.106;7.030;2022-12-18T13:43:51;19.80;;;9.55;;
51654;SDS011;37732;53.106;7.030;2022-12-18T13:46:29;16.52;;;9.13;;
51654;SDS011;37732;53.106;7.030;2022-12-18T13:51:43;21.88;;;9.20;;
51654;SDS011;37732;53.106;7.030;2022-12-18T13:57:04;13.13;;;9.90;;
51654;SDS011;37732;53.106;7.030;2022-12-18T13:59:49;13.23;;;9.48;;
51654;SDS011;37732;53.106;7.030;2022-12-18T14:02:17;12.27;;;10.02;;
51654;SDS011;37732;53.106;7.030;2022-12-18T14:04:47;13.75;;;10.30;;
51654;SDS011;37732;53.106;7.030;2022-12-18T14:07:14;13.90;;;10.73;;
51654;SDS011;37732;53.106;7.030;2022-12-18T14:09:49;14.93;;;11.52;;
51654;SDS011;37732;53.106;7.030;2022-12-18T14:12:22;13.55;;;10.70;;
51654;SDS011;37732;53.106;7.030;2022-12-18T14:15:31;15.38;;;12.38;;
51654;SDS011;37732;53.106;7.030;2022-12-18T14:20:52;16.10;;;11.43;;
51654;SDS011;37732;53.106;7.030;2022-12-18T14:26:01;13.25;;;10.73;;
51654;SDS011;37732;53.106;7.030;2022-12-18T14:28:28;13.75;;;10.82;;
51654;SDS011;37732;53.106;7.030;2022-12-18T14:30:54;14.10;;;10.88;;
51654;SDS011;37732;53.106;7.030;2022-12-18T14:33:22;15.20;;;10.32;;
51654;SDS011;37732;53.106;7.030;2022-12-18T14:36:00;19.00;;;16.42;;
51654;SDS011;37732;53.106;7.030;2022-12-18T14:38:31;16.75;;;12.75;;
51654;SDS011;37732;53.106;7.030;2022-12-18T14:40:58;16.23;;;11.90;;
51654;SDS011;37732;53.106;7.030;2022-12-18T14:43:25;20.10;;;11.13;;
51654;SDS011;37732;53.106;7.030;2022-12-18T14:45:52;15.77;;;11.73;;
51654;SDS011;37732;53.106;7.030;2022-12-18T14:48:24;14.57;;;10.80;;
51654;SDS011;37732;53.106;7.030;2022-12-18T14:51:00;20.80;;;14.82;;
51654;SDS011;37732;53.106;7.030;2022-12-18T14:56:12;14.68;;;11.45;;
51654;SDS011;37732;53.106;7.030;2022-12-18T14:58:46;15.07;;;10.32;;
51654;SDS011;37732;53.106;7.030;2022-12-18T15:01:18;15.65;;;12.07;;
51654;SDS011;37732;53.106;7.030;2022-12-18T15:03:49;16.52;;;11.77;;
51654;SDS011;37732;53.106;7.030;2022-12-18T15:06:17;13.77;;;11.90;;
51654;SDS011;37732;53.106;7.030;2022-12-18T15:08:49;16.92;;;10.75;;
51654;SDS011;37732;53.106;7.030;2022-12-18T15:11:34;13.60;;;11.18;;
51654;SDS011;37732;53.106;7.030;2022-12-18T15:17:06;15.13;;;10.43;;
51654;SDS011;37732;53.106;7.030;2022-12-18T15:19:59;15.52;;;12.25;;
51654;SDS011;37732;53.106;7.030;2022-12-18T15:22:30;13.20;;;10.98;;
51654;SDS011;37732;53.106;7.030;2022-12-18T15:25:02;13.45;;;9.95;;
51654;SDS011;37732;53.106;7.030;2022-12-18T15:27:46;14.50;;;10.55;;
51654;SDS011;37732;53.106;7.030;2022-12-18T15:30:17;12.75;;;9.60;;
51654;SDS011;37732;53.106;7.030;2022-12-18T15:32:45;12.40;;;10.18;;
51654;SDS011;37732;53.106;7.030;2022-12-18T15:35:19;12.63;;;8.98;;
51654;SDS011;37732;53.106;7.030;2022-12-18T15:37:44;13.38;;;9.88;;
51654;SDS011;37732;53.106;7.030;2022-12-18T15:40:14;14.25;;;11.13;;
51654;SDS011;37732;53.106;7.030;2022-12-18T15:42:44;14.30;;;11.13;;
51654;SDS011;37732;53.106;7.030;2022-12-18T15:45:30;12.90;;;10.40;;
51654;SDS011;37732;53.106;7.030;2022-12-18T15:47:56;13.48;;;10.18;;
51654;SDS011;37732;53.106;7.030;2022-12-18T15:50:21;15.07;;;9.00;;
51654;SDS011;37732;53.106;7.030;2022-12-18T15:52:49;13.75;;;10.10;;
51654;SDS011;37732;53.106;7.030;2022-12-18T15:55:19;13.57;;;10.48;;
51654;SDS011;37732;53.106;7.030;2022-12-18T15:58:05;13.40;;;10.15;;
51654;SDS011;37732;53.106;7.030;2022-12-18T16:00:32;15.60;;;9.90;;
51654;SDS011;37732;53.106;7.030;2022-12-18T16:02:59;11.80;;;9.65;;
51654;SDS011;37732;53.106;7.030;2022-12-18T16:05:26;11.68;;;8.93;;
51654;SDS011;37732;53.106;7.030;2022-12-18T16:07:52;12.98;;;10.40;;
51654;SDS011;37732;53.106;7.030;2022-12-18T16:10:18;12.55;;;8.90;;
51654;SDS011;37732;53.106;7.030;2022-12-18T16:12:44;12.35;;;7.75;;
51654;SDS011;37732;53.106;7.030;2022-12-18T16:15:11;12.50;;;7.72;;
51654;SDS011;37732;53.106;7.030;2022-12-18T16:17:42;12.98;;;9.43;;
51654;SDS011;37732;53.106;7.030;2022-12-18T16:20:12;13.07;;;10.15;;